sensor_id;sensor_type;location;lat;lon;timestamp;P1;durP1;ratioP1;P2;durP2;ratioP2
64957;SDS011;51486;50.232;19.208;2023-03-29T00:00:24;29.27;;;9.43;;
64957;SDS011;51486;50.232;19.208;2023-03-29T00:03:09;17.83;;;9.27;;
64957;SDS011;51486;50.232;19.208;2023-03-29T00:05:59;19.57;;;8.87;;
64957;SDS011;51486;50.232;19.208;2023-03-29T00:08:47;26.80;;;10.37;;
64957;SDS011;51486;50.232;19.208;2023-03-29T00:11:38;22.87;;;9.17;;
64957;SDS011;51486;50.232;19.208;2023-03-29T00:14:24;23.67;;;9.33;;
64957;SDS011;51486;50.232;19.208;2023-03-29T00:17:11;21.20;;;7.60;;
64957;SDS011;51486;50.232;19.208;2023-03-29T00:19:56;29.47;;;10.00;;
64957;SDS011;51486;50.232;19.208;2023-03-29T00:22:42;18.67;;;7.90;;
64957;SDS011;51486;50.232;19.208;2023-03-29T00:25:28;19.80;;;8.70;;
64957;SDS011;51486;50.232;19.208;2023-03-29T00:28:14;21.80;;;8.63;;
64957;SDS011;51486;50.232;19.208;2023-03-29T00:31:07;21.47;;;8.30;;
64957;SDS011;51486;50.232;19.208;2023-03-29T00:33:57;33.47;;;10.73;;
64957;SDS011;51486;50.232;19.208;2023-03-29T00:36:43;38.17;;;13.70;;
64957;SDS011;51486;50.232;19.208;2023-03-29T00:39:28;40.73;;;14.00;;
64957;SDS011;51486;50.232;19.208;2023-03-29T00:42:15;27.13;;;12.90;;
64957;SDS011;51486;50.232;19.208;2023-03-29T00:45:03;37.63;;;11.17;;
64957;SDS011;51486;50.232;19.208;2023-03-29T00:47:51;34.00;;;13.20;;
64957;SDS011;51486;50.232;19.208;2023-03-29T00:50:48;37.30;;;14.20;;
64957;SDS011;51486;50.232;19.208;2023-03-29T00:53:38;30.93;;;13.37;;
64957;SDS011;51486;50.232;19.208;2023-03-29T00:56:31;32.20;;;13.80;;
64957;SDS011;51486;50.232;19.208;2023-03-29T00:59:21;30.13;;;12.60;;
64957;SDS011;51486;50.232;19.208;2023-03-29T01:02:08;39.27;;;14.07;;
64957;SDS011;51486;50.232;19.208;2023-03-29T01:04:56;32.97;;;14.10;;
64957;SDS011;51486;50.232;19.208;2023-03-29T01:07:52;28.03;;;13.43;;
64957;SDS011;51486;50.232;19.208;2023-03-29T01:10:44;28.50;;;13.80;;
64957;SDS011;51486;50.232;19.208;2023-03-29T01:13:40;26.77;;;12.00;;
64957;SDS011;51486;50.232;19.208;2023-03-29T01:16:29;44.40;;;14.60;;
64957;SDS011;51486;50.232;19.208;2023-03-29T01:19:18;52.77;;;17.37;;
64957;SDS011;51486;50.232;19.208;2023-03-29T01:25:30;41.70;;;17.23;;
64957;SDS011;51486;50.232;19.208;2023-03-29T01:28:20;45.47;;;16.23;;
64957;SDS011;51486;50.232;19.208;2023-03-29T01:31:13;46.27;;;15.77;;
64957;SDS011;51486;50.232;19.208;2023-03-29T01:34:15;38.27;;;16.30;;
64957;SDS011;51486;50.232;19.208;2023-03-29T01:37:29;44.03;;;16.53;;
64957;SDS011;51486;50.232;19.208;2023-03-29T01:40:20;33.07;;;16.13;;
64957;SDS011;51486;50.232;19.208;2023-03-29T01:52:14;42.17;;;17.43;;
64957;SDS011;51486;50.232;19.208;2023-03-29T01:55:07;43.20;;;17.73;;
64957;SDS011;51486;50.232;19.208;2023-03-29T01:57:56;44.73;;;18.57;;
64957;SDS011;51486;50.232;19.208;2023-03-29T02:00:44;39.70;;;16.50;;
64957;SDS011;51486;50.232;19.208;2023-03-29T02:03:30;49.83;;;18.20;;
64957;SDS011;51486;50.232;19.208;2023-03-29T02:06:18;36.43;;;16.30;;
64957;SDS011;51486;50.232;19.208;2023-03-29T02:09:08;40.93;;;16.77;;
64957;SDS011;51486;50.232;19.208;2023-03-29T02:11:54;50.07;;;20.43;;
64957;SDS011;51486;50.232;19.208;2023-03-29T02:14:41;48.37;;;19.33;;
64957;SDS011;51486;50.232;19.208;2023-03-29T02:17:27;44.17;;;18.90;;
64957;SDS011;51486;50.232;19.208;2023-03-29T02:20:18;45.80;;;17.10;;
64957;SDS011;51486;50.232;19.208;2023-03-29T02:23:08;39.90;;;18.30;;
64957;SDS011;51486;50.232;19.208;2023-03-29T02:25:59;34.03;;;15.83;;
64957;SDS011;51486;50.232;19.208;2023-03-29T02:28:46;45.13;;;16.17;;
64957;SDS011;51486;50.232;19.208;2023-03-29T02:34:31;37.77;;;17.17;;
64957;SDS011;51486;50.232;19.208;2023-03-29T02:37:23;43.10;;;17.93;;
64957;SDS011;51486;50.232;19.208;2023-03-29T02:40:14;40.70;;;18.20;;
64957;SDS011;51486;50.232;19.208;2023-03-29T02:43:01;41.10;;;18.00;;
64957;SDS011;51486;50.232;19.208;2023-03-29T02:45:48;41.77;;;17.90;;
64957;SDS011;51486;50.232;19.208;2023-03-29T02:48:35;38.97;;;18.53;;
64957;SDS011;51486;50.232;19.208;2023-03-29T02:51:29;44.40;;;18.20;;
64957;SDS011;51486;50.232;19.208;2023-03-29T02:54:19;48.10;;;19.63;;
64957;SDS011;51486;50.232;19.208;2023-03-29T02:57:07;65.00;;;22.07;;
64957;SDS011;51486;50.232;19.208;2023-03-29T02:59:54;40.03;;;18.93;;
64957;SDS011;51486;50.232;19.208;2023-03-29T03:02:41;39.87;;;18.17;;
64957;SDS011;51486;50.232;19.208;2023-03-29T03:05:27;49.53;;;20.67;;
64957;SDS011;51486;50.232;19.208;2023-03-29T03:08:13;44.40;;;18.87;;
64957;SDS011;51486;50.232;19.208;2023-03-29T03:10:59;47.03;;;19.73;;
64957;SDS011;51486;50.232;19.208;2023-03-29T03:13:46;48.17;;;19.53;;
64957;SDS011;51486;50.232;19.208;2023-03-29T03:16:31;42.47;;;19.40;;
64957;SDS011;51486;50.232;19.208;2023-03-29T03:19:17;50.53;;;19.93;;
64957;SDS011;51486;50.232;19.208;2023-03-29T03:22:04;49.67;;;21.03;;
64957;SDS011;51486;50.232;19.208;2023-03-29T03:24:50;55.07;;;22.63;;
64957;SDS011;51486;50.232;19.208;2023-03-29T03:27:36;47.90;;;21.53;;
64957;SDS011;51486;50.232;19.208;2023-03-29T03:30:23;52.17;;;21.23;;
64957;SDS011;51486;50.232;19.208;2023-03-29T03:33:09;60.03;;;23.07;;
64957;SDS011;51486;50.232;19.208;2023-03-29T03:35:56;65.00;;;23.17;;
64957;SDS011;51486;50.232;19.208;2023-03-29T03:38:46;65.07;;;23.60;;
64957;SDS011;51486;50.232;19.208;2023-03-29T03:41:32;54.07;;;22.23;;
64957;SDS011;51486;50.232;19.208;2023-03-29T03:44:18;54.20;;;21.70;;
64957;SDS011;51486;50.232;19.208;2023-03-29T03:47:04;75.40;;;23.90;;
64957;SDS011;51486;50.232;19.208;2023-03-29T03:49:50;53.60;;;24.90;;
64957;SDS011;51486;50.232;19.208;2023-03-29T03:52:36;71.23;;;27.83;;
64957;SDS011;51486;50.232;19.208;2023-03-29T03:55:22;66.80;;;27.50;;
64957;SDS011;51486;50.232;19.208;2023-03-29T03:58:08;73.47;;;27.70;;
64957;SDS011;51486;50.232;19.208;2023-03-29T04:00:54;69.53;;;28.33;;
64957;SDS011;51486;50.232;19.208;2023-03-29T04:03:39;72.20;;;29.50;;
64957;SDS011;51486;50.232;19.208;2023-03-29T04:06:25;67.47;;;28.07;;
64957;SDS011;51486;50.232;19.208;2023-03-29T04:09:14;73.87;;;28.13;;
64957;SDS011;51486;50.232;19.208;2023-03-29T04:12:00;53.70;;;24.97;;
64957;SDS011;51486;50.232;19.208;2023-03-29T04:14:46;70.67;;;25.20;;
64957;SDS011;51486;50.232;19.208;2023-03-29T04:17:32;60.57;;;24.40;;
64957;SDS011;51486;50.232;19.208;2023-03-29T04:20:19;67.00;;;26.97;;
64957;SDS011;51486;50.232;19.208;2023-03-29T04:23:04;70.83;;;26.37;;
64957;SDS011;51486;50.232;19.208;2023-03-29T04:25:52;54.40;;;25.07;;
64957;SDS011;51486;50.232;19.208;2023-03-29T04:28:40;71.73;;;27.53;;
64957;SDS011;51486;50.232;19.208;2023-03-29T04:31:26;80.07;;;27.20;;
64957;SDS011;51486;50.232;19.208;2023-03-29T04:34:12;76.33;;;27.90;;
64957;SDS011;51486;50.232;19.208;2023-03-29T04:36:57;76.30;;;28.40;;
64957;SDS011;51486;50.232;19.208;2023-03-29T04:39:43;61.67;;;27.03;;
64957;SDS011;51486;50.232;19.208;2023-03-29T04:42:29;79.00;;;29.47;;
64957;SDS011;51486;50.232;19.208;2023-03-29T04:45:15;71.07;;;27.60;;
64957;SDS011;51486;50.232;19.208;2023-03-29T04:48:04;69.93;;;28.60;;
64957;SDS011;51486;50.232;19.208;2023-03-29T04:50:49;61.73;;;28.07;;
64957;SDS011;51486;50.232;19.208;2023-03-29T04:53:35;69.70;;;27.20;;
64957;SDS011;51486;50.232;19.208;2023-03-29T04:56:21;66.20;;;28.03;;
64957;SDS011;51486;50.232;19.208;2023-03-29T04:59:07;64.73;;;25.60;;
64957;SDS011;51486;50.232;19.208;2023-03-29T05:01:54;58.43;;;24.40;;
64957;SDS011;51486;50.232;19.208;2023-03-29T05:04:39;73.33;;;25.67;;
64957;SDS011;51486;50.232;19.208;2023-03-29T05:07:25;69.97;;;26.10;;
64957;SDS011;51486;50.232;19.208;2023-03-29T05:10:11;58.13;;;23.67;;
64957;SDS011;51486;50.232;19.208;2023-03-29T05:12:57;57.57;;;23.27;;
64957;SDS011;51486;50.232;19.208;2023-03-29T05:15:42;56.80;;;24.50;;
64957;SDS011;51486;50.232;19.208;2023-03-29T05:18:29;61.83;;;25.00;;
64957;SDS011;51486;50.232;19.208;2023-03-29T05:21:15;58.50;;;25.27;;
64957;SDS011;51486;50.232;19.208;2023-03-29T05:24:01;57.53;;;24.57;;
64957;SDS011;51486;50.232;19.208;2023-03-29T05:26:47;56.87;;;23.77;;
64957;SDS011;51486;50.232;19.208;2023-03-29T05:29:35;52.10;;;23.70;;
64957;SDS011;51486;50.232;19.208;2023-03-29T05:32:21;57.07;;;24.57;;
64957;SDS011;51486;50.232;19.208;2023-03-29T05:35:07;48.67;;;21.50;;
64957;SDS011;51486;50.232;19.208;2023-03-29T05:37:53;49.07;;;22.33;;
64957;SDS011;51486;50.232;19.208;2023-03-29T05:40:40;53.27;;;20.20;;
64957;SDS011;51486;50.232;19.208;2023-03-29T05:43:26;44.33;;;17.43;;
64957;SDS011;51486;50.232;19.208;2023-03-29T05:46:12;44.10;;;17.33;;
64957;SDS011;51486;50.232;19.208;2023-03-29T05:48:58;36.67;;;15.50;;
64957;SDS011;51486;50.232;19.208;2023-03-29T05:51:44;34.17;;;14.37;;
64957;SDS011;51486;50.232;19.208;2023-03-29T05:54:30;47.63;;;15.50;;
64957;SDS011;51486;50.232;19.208;2023-03-29T05:57:15;34.97;;;14.47;;
64957;SDS011;51486;50.232;19.208;2023-03-29T06:00:02;46.70;;;17.60;;
64957;SDS011;51486;50.232;19.208;2023-03-29T06:02:56;34.63;;;15.10;;
64957;SDS011;51486;50.232;19.208;2023-03-29T06:05:41;40.63;;;15.83;;
64957;SDS011;51486;50.232;19.208;2023-03-29T06:08:27;31.10;;;14.90;;
64957;SDS011;51486;50.232;19.208;2023-03-29T06:11:13;35.93;;;15.13;;
64957;SDS011;51486;50.232;19.208;2023-03-29T06:14:00;36.07;;;15.07;;
64957;SDS011;51486;50.232;19.208;2023-03-29T06:16:46;29.93;;;14.20;;
64957;SDS011;51486;50.232;19.208;2023-03-29T06:19:32;31.67;;;13.23;;
64957;SDS011;51486;50.232;19.208;2023-03-29T06:22:18;36.43;;;13.67;;
64957;SDS011;51486;50.232;19.208;2023-03-29T06:25:05;26.40;;;12.60;;
64957;SDS011;51486;50.232;19.208;2023-03-29T06:27:52;31.37;;;13.40;;
64957;SDS011;51486;50.232;19.208;2023-03-29T06:30:38;37.97;;;13.67;;
64957;SDS011;51486;50.232;19.208;2023-03-29T06:33:24;30.93;;;13.37;;
64957;SDS011;51486;50.232;19.208;2023-03-29T06:36:14;24.87;;;11.47;;
64957;SDS011;51486;50.232;19.208;2023-03-29T06:39:01;31.10;;;12.63;;
64957;SDS011;51486;50.232;19.208;2023-03-29T06:41:52;27.83;;;11.83;;
64957;SDS011;51486;50.232;19.208;2023-03-29T06:44:39;22.80;;;11.77;;
64957;SDS011;51486;50.232;19.208;2023-03-29T06:47:25;27.17;;;11.50;;
64957;SDS011;51486;50.232;19.208;2023-03-29T06:50:15;38.63;;;12.17;;
64957;SDS011;51486;50.232;19.208;2023-03-29T06:53:02;24.47;;;9.50;;
64957;SDS011;51486;50.232;19.208;2023-03-29T06:55:49;19.23;;;9.27;;
64957;SDS011;51486;50.232;19.208;2023-03-29T06:58:36;22.83;;;9.33;;
64957;SDS011;51486;50.232;19.208;2023-03-29T07:01:22;18.20;;;8.93;;
64957;SDS011;51486;50.232;19.208;2023-03-29T07:04:08;24.33;;;8.70;;
64957;SDS011;51486;50.232;19.208;2023-03-29T07:06:54;19.93;;;8.73;;
64957;SDS011;51486;50.232;19.208;2023-03-29T07:09:45;16.30;;;7.57;;
64957;SDS011;51486;50.232;19.208;2023-03-29T07:12:38;13.10;;;7.33;;
64957;SDS011;51486;50.232;19.208;2023-03-29T07:15:25;15.67;;;6.73;;
64957;SDS011;51486;50.232;19.208;2023-03-29T07:18:11;20.00;;;6.83;;
64957;SDS011;51486;50.232;19.208;2023-03-29T07:20:57;19.23;;;6.67;;
64957;SDS011;51486;50.232;19.208;2023-03-29T07:23:43;12.13;;;6.53;;
64957;SDS011;51486;50.232;19.208;2023-03-29T07:26:29;13.13;;;5.60;;
64957;SDS011;51486;50.232;19.208;2023-03-29T07:29:14;14.57;;;6.57;;
64957;SDS011;51486;50.232;19.208;2023-03-29T07:32:00;12.70;;;6.10;;
64957;SDS011;51486;50.232;19.208;2023-03-29T07:34:46;13.87;;;6.30;;
64957;SDS011;51486;50.232;19.208;2023-03-29T07:37:34;12.03;;;4.87;;
64957;SDS011;51486;50.232;19.208;2023-03-29T07:40:21;13.10;;;5.23;;
64957;SDS011;51486;50.232;19.208;2023-03-29T07:43:08;11.93;;;5.50;;
64957;SDS011;51486;50.232;19.208;2023-03-29T07:45:55;17.20;;;6.20;;
64957;SDS011;51486;50.232;19.208;2023-03-29T07:48:45;12.83;;;5.80;;
64957;SDS011;51486;50.232;19.208;2023-03-29T07:51:31;14.03;;;5.00;;
64957;SDS011;51486;50.232;19.208;2023-03-29T07:54:17;10.00;;;4.73;;
64957;SDS011;51486;50.232;19.208;2023-03-29T07:57:03;11.13;;;4.47;;
64957;SDS011;51486;50.232;19.208;2023-03-29T07:59:49;14.63;;;5.60;;
64957;SDS011;51486;50.232;19.208;2023-03-29T08:02:34;11.40;;;4.60;;
64957;SDS011;51486;50.232;19.208;2023-03-29T08:05:21;14.93;;;4.13;;
64957;SDS011;51486;50.232;19.208;2023-03-29T08:08:07;9.23;;;3.90;;
64957;SDS011;51486;50.232;19.208;2023-03-29T08:10:53;12.47;;;3.90;;
64957;SDS011;51486;50.232;19.208;2023-03-29T08:13:40;11.77;;;4.23;;
64957;SDS011;51486;50.232;19.208;2023-03-29T08:16:26;11.53;;;4.60;;
64957;SDS011;51486;50.232;19.208;2023-03-29T08:19:12;8.40;;;3.80;;
64957;SDS011;51486;50.232;19.208;2023-03-29T08:21:59;11.90;;;3.37;;
64957;SDS011;51486;50.232;19.208;2023-03-29T08:24:45;6.17;;;3.30;;
64957;SDS011;51486;50.232;19.208;2023-03-29T08:27:31;5.97;;;3.43;;
64957;SDS011;51486;50.232;19.208;2023-03-29T08:30:16;13.13;;;3.67;;
64957;SDS011;51486;50.232;19.208;2023-03-29T08:33:02;17.67;;;4.90;;
64957;SDS011;51486;50.232;19.208;2023-03-29T08:35:48;8.30;;;3.10;;
64957;SDS011;51486;50.232;19.208;2023-03-29T08:38:34;11.97;;;5.10;;
64957;SDS011;51486;50.232;19.208;2023-03-29T08:41:27;9.17;;;4.67;;
64957;SDS011;51486;50.232;19.208;2023-03-29T08:50:44;3.57;;;1.90;;
64957;SDS011;51486;50.232;19.208;2023-03-29T08:53:34;4.77;;;2.73;;
64957;SDS011;51486;50.232;19.208;2023-03-29T08:56:30;8.47;;;2.43;;
64957;SDS011;51486;50.232;19.208;2023-03-29T08:59:25;8.50;;;3.27;;
64957;SDS011;51486;50.232;19.208;2023-03-29T09:02:14;9.20;;;3.33;;
64957;SDS011;51486;50.232;19.208;2023-03-29T09:05:16;6.87;;;2.80;;
64957;SDS011;51486;50.232;19.208;2023-03-29T09:08:10;3.50;;;1.50;;
64957;SDS011;51486;50.232;19.208;2023-03-29T09:17:28;1.97;;;1.20;;
64957;SDS011;51486;50.232;19.208;2023-03-29T09:29:11;1.40;;;0.80;;
64957;SDS011;51486;50.232;19.208;2023-03-29T09:32:20;2.67;;;1.40;;
64957;SDS011;51486;50.232;19.208;2023-03-29T09:37:58;1.57;;;0.93;;
64957;SDS011;51486;50.232;19.208;2023-03-29T09:40:49;0.87;;;0.80;;
64957;SDS011;51486;50.232;19.208;2023-03-29T09:43:38;3.33;;;1.70;;
64957;SDS011;51486;50.232;19.208;2023-03-29T09:46:32;4.57;;;1.70;;
64957;SDS011;51486;50.232;19.208;2023-03-29T09:49:29;2.67;;;1.20;;
64957;SDS011;51486;50.232;19.208;2023-03-29T09:52:19;7.73;;;1.90;;
64957;SDS011;51486;50.232;19.208;2023-03-29T09:55:05;4.80;;;1.97;;
64957;SDS011;51486;50.232;19.208;2023-03-29T09:57:52;4.67;;;1.50;;
64957;SDS011;51486;50.232;19.208;2023-03-29T10:00:38;3.67;;;1.63;;
64957;SDS011;51486;50.232;19.208;2023-03-29T10:03:25;3.40;;;1.53;;
64957;SDS011;51486;50.232;19.208;2023-03-29T10:06:12;3.63;;;1.33;;
64957;SDS011;51486;50.232;19.208;2023-03-29T10:08:58;4.47;;;1.33;;
64957;SDS011;51486;50.232;19.208;2023-03-29T10:11:51;2.87;;;1.37;;
64957;SDS011;51486;50.232;19.208;2023-03-29T10:14:44;2.10;;;1.10;;
64957;SDS011;51486;50.232;19.208;2023-03-29T10:17:37;2.00;;;1.20;;
64957;SDS011;51486;50.232;19.208;2023-03-29T10:20:24;1.23;;;0.77;;
64957;SDS011;51486;50.232;19.208;2023-03-29T10:23:15;1.43;;;1.10;;
64957;SDS011;51486;50.232;19.208;2023-03-29T10:26:03;2.87;;;1.37;;
64957;SDS011;51486;50.232;19.208;2023-03-29T10:28:52;3.43;;;1.73;;
64957;SDS011;51486;50.232;19.208;2023-03-29T10:31:41;5.63;;;1.50;;
64957;SDS011;51486;50.232;19.208;2023-03-29T10:34:27;2.57;;;1.30;;
64957;SDS011;51486;50.232;19.208;2023-03-29T10:37:15;2.50;;;1.43;;
64957;SDS011;51486;50.232;19.208;2023-03-29T10:40:03;2.70;;;1.57;;
64957;SDS011;51486;50.232;19.208;2023-03-29T10:42:51;1.53;;;1.10;;
64957;SDS011;51486;50.232;19.208;2023-03-29T10:45:42;3.50;;;1.70;;
64957;SDS011;51486;50.232;19.208;2023-03-29T10:48:28;3.07;;;1.60;;
64957;SDS011;51486;50.232;19.208;2023-03-29T10:51:16;2.37;;;1.20;;
64957;SDS011;51486;50.232;19.208;2023-03-29T10:54:03;2.07;;;1.33;;
64957;SDS011;51486;50.232;19.208;2023-03-29T10:56:54;2.00;;;1.10;;
64957;SDS011;51486;50.232;19.208;2023-03-29T11:05:59;2.17;;;1.30;;
64957;SDS011;51486;50.232;19.208;2023-03-29T11:08:55;3.37;;;1.20;;
64957;SDS011;51486;50.232;19.208;2023-03-29T11:14:51;4.80;;;1.67;;
64957;SDS011;51486;50.232;19.208;2023-03-29T11:18:01;5.20;;;1.83;;
64957;SDS011;51486;50.232;19.208;2023-03-29T11:27:44;2.73;;;1.53;;
64957;SDS011;51486;50.232;19.208;2023-03-29T11:30:47;5.87;;;1.80;;
64957;SDS011;51486;50.232;19.208;2023-03-29T11:33:50;4.53;;;1.23;;
64957;SDS011;51486;50.232;19.208;2023-03-29T11:36:50;2.40;;;1.10;;
64957;SDS011;51486;50.232;19.208;2023-03-29T11:42:37;2.10;;;0.93;;
64957;SDS011;51486;50.232;19.208;2023-03-29T11:45:29;3.23;;;1.40;;
64957;SDS011;51486;50.232;19.208;2023-03-29T11:48:32;1.93;;;1.30;;
64957;SDS011;51486;50.232;19.208;2023-03-29T11:51:22;2.60;;;1.10;;
64957;SDS011;51486;50.232;19.208;2023-03-29T11:57:23;1.83;;;1.30;;
64957;SDS011;51486;50.232;19.208;2023-03-29T12:00:15;2.97;;;1.67;;
64957;SDS011;51486;50.232;19.208;2023-03-29T12:03:29;2.80;;;1.30;;
64957;SDS011;51486;50.232;19.208;2023-03-29T12:12:12;2.73;;;1.20;;
64957;SDS011;51486;50.232;19.208;2023-03-29T12:15:08;5.33;;;1.40;;
64957;SDS011;51486;50.232;19.208;2023-03-29T12:21:01;3.47;;;1.53;;
64957;SDS011;51486;50.232;19.208;2023-03-29T12:23:51;3.50;;;1.57;;
64957;SDS011;51486;50.232;19.208;2023-03-29T12:32:29;7.60;;;3.10;;
64957;SDS011;51486;50.232;19.208;2023-03-29T12:38:49;2.33;;;1.37;;
64957;SDS011;51486;50.232;19.208;2023-03-29T12:41:36;3.87;;;1.53;;
64957;SDS011;51486;50.232;19.208;2023-03-29T12:44:22;6.10;;;1.60;;
64957;SDS011;51486;50.232;19.208;2023-03-29T12:47:08;3.33;;;1.60;;
64957;SDS011;51486;50.232;19.208;2023-03-29T12:50:03;7.00;;;1.97;;
64957;SDS011;51486;50.232;19.208;2023-03-29T12:52:49;1.40;;;1.07;;
64957;SDS011;51486;50.232;19.208;2023-03-29T13:01:26;3.30;;;2.07;;
64957;SDS011;51486;50.232;19.208;2023-03-29T13:04:17;5.47;;;1.70;;
64957;SDS011;51486;50.232;19.208;2023-03-29T13:07:13;2.23;;;1.30;;
64957;SDS011;51486;50.232;19.208;2023-03-29T13:10:34;2.03;;;1.23;;
64957;SDS011;51486;50.232;19.208;2023-03-29T13:13:25;2.90;;;1.60;;
64957;SDS011;51486;50.232;19.208;2023-03-29T13:16:20;3.57;;;1.80;;
64957;SDS011;51486;50.232;19.208;2023-03-29T13:22:34;3.97;;;2.20;;
64957;SDS011;51486;50.232;19.208;2023-03-29T13:46:24;2.17;;;1.23;;
64957;SDS011;51486;50.232;19.208;2023-03-29T13:49:22;6.17;;;1.43;;
64957;SDS011;51486;50.232;19.208;2023-03-29T13:52:12;3.40;;;1.33;;
64957;SDS011;51486;50.232;19.208;2023-03-29T13:55:03;3.67;;;2.13;;
64957;SDS011;51486;50.232;19.208;2023-03-29T13:57:55;3.37;;;1.67;;
64957;SDS011;51486;50.232;19.208;2023-03-29T14:00:44;4.53;;;1.97;;
64957;SDS011;51486;50.232;19.208;2023-03-29T14:03:38;4.63;;;1.53;;
64957;SDS011;51486;50.232;19.208;2023-03-29T14:06:28;3.17;;;1.67;;
64957;SDS011;51486;50.232;19.208;2023-03-29T14:09:17;6.00;;;1.47;;
64957;SDS011;51486;50.232;19.208;2023-03-29T14:12:04;1.30;;;1.10;;
64957;SDS011;51486;50.232;19.208;2023-03-29T14:14:52;2.80;;;1.83;;
64957;SDS011;51486;50.232;19.208;2023-03-29T14:17:44;2.40;;;1.50;;
64957;SDS011;51486;50.232;19.208;2023-03-29T14:20:30;2.60;;;1.27;;
64957;SDS011;51486;50.232;19.208;2023-03-29T14:23:21;3.47;;;1.57;;
64957;SDS011;51486;50.232;19.208;2023-03-29T14:26:19;3.47;;;1.43;;
64957;SDS011;51486;50.232;19.208;2023-03-29T14:29:08;2.47;;;1.53;;
64957;SDS011;51486;50.232;19.208;2023-03-29T14:31:55;3.43;;;1.70;;
64957;SDS011;51486;50.232;19.208;2023-03-29T14:34:41;1.90;;;1.20;;
64957;SDS011;51486;50.232;19.208;2023-03-29T14:37:27;4.13;;;1.50;;
64957;SDS011;51486;50.232;19.208;2023-03-29T14:40:15;1.40;;;1.30;;
64957;SDS011;51486;50.232;19.208;2023-03-29T14:43:05;1.87;;;1.10;;
64957;SDS011;51486;50.232;19.208;2023-03-29T14:45:52;3.13;;;1.60;;
64957;SDS011;51486;50.232;19.208;2023-03-29T14:48:38;7.37;;;2.00;;
64957;SDS011;51486;50.232;19.208;2023-03-29T14:51:24;2.23;;;1.70;;
64957;SDS011;51486;50.232;19.208;2023-03-29T14:57:06;2.93;;;1.50;;
64957;SDS011;51486;50.232;19.208;2023-03-29T15:00:00;6.97;;;1.87;;
64957;SDS011;51486;50.232;19.208;2023-03-29T15:02:58;2.83;;;1.53;;
64957;SDS011;51486;50.232;19.208;2023-03-29T15:05:46;7.33;;;2.27;;
64957;SDS011;51486;50.232;19.208;2023-03-29T15:08:35;3.33;;;1.97;;
64957;SDS011;51486;50.232;19.208;2023-03-29T15:11:23;7.57;;;1.67;;
64957;SDS011;51486;50.232;19.208;2023-03-29T15:14:13;2.30;;;1.07;;
64957;SDS011;51486;50.232;19.208;2023-03-29T15:17:02;3.07;;;1.70;;
64957;SDS011;51486;50.232;19.208;2023-03-29T15:19:50;2.20;;;1.40;;
64957;SDS011;51486;50.232;19.208;2023-03-29T15:25:52;5.10;;;2.33;;
64957;SDS011;51486;50.232;19.208;2023-03-29T15:28:47;8.43;;;3.90;;
64957;SDS011;51486;50.232;19.208;2023-03-29T15:31:56;3.07;;;1.83;;
64957;SDS011;51486;50.232;19.208;2023-03-29T15:34:43;4.83;;;1.30;;
64957;SDS011;51486;50.232;19.208;2023-03-29T15:37:29;6.67;;;2.07;;
64957;SDS011;51486;50.232;19.208;2023-03-29T15:40:15;2.67;;;1.57;;
64957;SDS011;51486;50.232;19.208;2023-03-29T15:43:10;3.27;;;1.47;;
64957;SDS011;51486;50.232;19.208;2023-03-29T15:45:57;3.20;;;1.80;;
64957;SDS011;51486;50.232;19.208;2023-03-29T15:48:42;5.57;;;1.53;;
64957;SDS011;51486;50.232;19.208;2023-03-29T15:51:28;2.13;;;1.53;;
64957;SDS011;51486;50.232;19.208;2023-03-29T15:54:14;4.27;;;1.50;;
64957;SDS011;51486;50.232;19.208;2023-03-29T15:57:02;5.63;;;1.90;;
64957;SDS011;51486;50.232;19.208;2023-03-29T15:59:50;2.93;;;1.73;;
64957;SDS011;51486;50.232;19.208;2023-03-29T16:02:36;1.93;;;1.30;;
64957;SDS011;51486;50.232;19.208;2023-03-29T16:05:22;5.97;;;2.20;;
64957;SDS011;51486;50.232;19.208;2023-03-29T16:08:09;8.30;;;3.53;;
64957;SDS011;51486;50.232;19.208;2023-03-29T16:10:57;7.07;;;2.60;;
64957;SDS011;51486;50.232;19.208;2023-03-29T16:13:43;7.80;;;2.67;;
64957;SDS011;51486;50.232;19.208;2023-03-29T16:16:29;4.43;;;2.50;;
64957;SDS011;51486;50.232;19.208;2023-03-29T16:19:14;7.17;;;2.67;;
64957;SDS011;51486;50.232;19.208;2023-03-29T16:22:01;8.87;;;3.07;;
64957;SDS011;51486;50.232;19.208;2023-03-29T16:24:51;5.27;;;2.87;;
64957;SDS011;51486;50.232;19.208;2023-03-29T16:27:37;5.07;;;2.73;;
64957;SDS011;51486;50.232;19.208;2023-03-29T16:30:22;4.97;;;1.90;;
64957;SDS011;51486;50.232;19.208;2023-03-29T16:33:09;5.23;;;2.67;;
64957;SDS011;51486;50.232;19.208;2023-03-29T16:35:55;4.73;;;1.70;;
64957;SDS011;51486;50.232;19.208;2023-03-29T16:38:41;3.30;;;1.53;;
64957;SDS011;51486;50.232;19.208;2023-03-29T16:41:26;5.73;;;2.40;;
64957;SDS011;51486;50.232;19.208;2023-03-29T16:44:16;4.03;;;1.90;;
64957;SDS011;51486;50.232;19.208;2023-03-29T16:47:04;4.60;;;2.23;;
64957;SDS011;51486;50.232;19.208;2023-03-29T16:49:50;4.63;;;2.37;;
64957;SDS011;51486;50.232;19.208;2023-03-29T16:52:35;3.93;;;2.00;;
64957;SDS011;51486;50.232;19.208;2023-03-29T16:55:22;4.37;;;2.33;;
64957;SDS011;51486;50.232;19.208;2023-03-29T16:58:07;5.80;;;2.67;;
64957;SDS011;51486;50.232;19.208;2023-03-29T17:00:53;7.07;;;2.60;;
64957;SDS011;51486;50.232;19.208;2023-03-29T17:03:42;15.17;;;4.77;;
64957;SDS011;51486;50.232;19.208;2023-03-29T17:06:28;10.73;;;5.03;;
64957;SDS011;51486;50.232;19.208;2023-03-29T17:09:16;14.03;;;5.73;;
64957;SDS011;51486;50.232;19.208;2023-03-29T17:12:01;18.00;;;4.80;;
64957;SDS011;51486;50.232;19.208;2023-03-29T17:14:47;12.40;;;5.70;;
64957;SDS011;51486;50.232;19.208;2023-03-29T17:17:33;13.43;;;7.30;;
64957;SDS011;51486;50.232;19.208;2023-03-29T17:20:19;13.27;;;5.73;;
64957;SDS011;51486;50.232;19.208;2023-03-29T17:23:05;21.90;;;7.77;;
64957;SDS011;51486;50.232;19.208;2023-03-29T17:25:52;18.47;;;7.27;;
64957;SDS011;51486;50.232;19.208;2023-03-29T17:28:39;15.00;;;6.00;;
64957;SDS011;51486;50.232;19.208;2023-03-29T17:31:25;15.87;;;6.13;;
64957;SDS011;51486;50.232;19.208;2023-03-29T17:34:14;10.97;;;4.80;;
64957;SDS011;51486;50.232;19.208;2023-03-29T17:37:01;15.13;;;5.33;;
64957;SDS011;51486;50.232;19.208;2023-03-29T17:39:47;35.47;;;13.00;;
64957;SDS011;51486;50.232;19.208;2023-03-29T17:42:33;17.37;;;6.27;;
64957;SDS011;51486;50.232;19.208;2023-03-29T17:45:19;21.00;;;8.77;;
64957;SDS011;51486;50.232;19.208;2023-03-29T17:48:05;19.50;;;8.70;;
64957;SDS011;51486;50.232;19.208;2023-03-29T17:50:53;22.93;;;10.23;;
64957;SDS011;51486;50.232;19.208;2023-03-29T17:53:39;21.30;;;10.90;;
64957;SDS011;51486;50.232;19.208;2023-03-29T17:56:25;34.27;;;12.37;;
64957;SDS011;51486;50.232;19.208;2023-03-29T17:59:11;24.87;;;11.33;;
64957;SDS011;51486;50.232;19.208;2023-03-29T18:01:56;28.17;;;11.87;;
64957;SDS011;51486;50.232;19.208;2023-03-29T18:04:44;38.13;;;13.87;;
64957;SDS011;51486;50.232;19.208;2023-03-29T18:07:30;36.03;;;12.43;;
64957;SDS011;51486;50.232;19.208;2023-03-29T18:10:16;52.27;;;15.60;;
64957;SDS011;51486;50.232;19.208;2023-03-29T18:13:02;46.83;;;17.27;;
64957;SDS011;51486;50.232;19.208;2023-03-29T18:15:47;45.30;;;15.43;;
64957;SDS011;51486;50.232;19.208;2023-03-29T18:18:39;44.00;;;15.87;;
64957;SDS011;51486;50.232;19.208;2023-03-29T18:21:25;41.57;;;14.07;;